createdAt,value
2019-05-13T00:00:46.360Z,4.97
2019-05-13T00:03:15.189Z,5.10
2019-05-13T00:05:44.686Z,5.30
2019-05-13T00:08:14.077Z,5.10
2019-05-13T00:10:44.320Z,5.00
2019-05-13T00:13:14.656Z,5.03
2019-05-13T00:15:44.249Z,4.97
2019-05-13T00:18:14.361Z,5.10
2019-05-13T00:20:44.357Z,5.37
2019-05-13T00:23:14.279Z,5.33
2019-05-13T00:25:44.434Z,6.27
2019-05-13T00:28:14.490Z,5.23
2019-05-13T00:30:44.496Z,5.03
2019-05-13T00:33:14.210Z,5.13
2019-05-13T00:35:44.280Z,5.00
2019-05-13T00:38:14.139Z,4.80
2019-05-13T00:40:44.352Z,5.00
2019-05-13T00:43:14.272Z,5.37
2019-05-13T00:45:44.811Z,5.70
2019-05-13T00:48:14.356Z,5.13
2019-05-13T00:50:44.275Z,5.90
2019-05-13T00:53:13.485Z,5.27
2019-05-13T00:55:44.559Z,5.10
2019-05-13T00:58:14.021Z,5.17
2019-05-13T01:00:44.464Z,4.77
2019-05-13T01:03:14.288Z,5.53
2019-05-13T01:05:44.563Z,4.87
2019-05-13T01:08:19.300Z,4.97
2019-05-13T01:10:48.077Z,5.10
2019-05-13T01:13:16.898Z,5.13
2019-05-13T01:15:45.712Z,4.67
2019-05-13T01:18:14.531Z,4.40
2019-05-13T01:20:43.867Z,4.70
2019-05-13T01:23:14.240Z,4.70
2019-05-13T01:25:44.456Z,4.57
2019-05-13T01:28:13.628Z,4.70
2019-05-13T01:30:43.901Z,4.93
2019-05-13T01:33:14.447Z,4.63
2019-05-13T01:35:44.568Z,4.73
2019-05-13T01:38:13.686Z,4.73
2019-05-13T01:40:44.046Z,4.67
2019-05-13T01:43:14.382Z,4.80
2019-05-13T01:45:44.168Z,4.90
2019-05-13T01:48:14.198Z,5.27
2019-05-13T01:50:44.530Z,5.30
2019-05-13T01:53:14.538Z,5.23
2019-05-13T01:55:44.232Z,5.07
2019-05-13T01:58:14.630Z,5.37
2019-05-13T02:00:44.477Z,4.90
2019-05-13T02:03:14.515Z,5.33
2019-05-13T02:05:44.327Z,5.40
2019-05-13T02:08:14.309Z,4.97
2019-05-13T02:10:50.784Z,5.30
2019-05-13T02:13:19.560Z,5.43
2019-05-13T02:15:48.952Z,5.53
2019-05-13T02:18:20.440Z,5.50
2019-05-13T02:20:49.276Z,5.27
2019-05-13T02:23:18.159Z,4.80
2019-05-13T02:25:46.984Z,5.27
2019-05-13T02:28:15.701Z,4.83
2019-05-13T02:30:45.555Z,5.30
2019-05-13T02:33:14.639Z,5.03
2019-05-13T02:35:43.692Z,4.97
2019-05-13T02:38:22.816Z,4.90
2019-05-13T02:40:43.467Z,5.00
2019-05-13T02:43:13.640Z,5.00
2019-05-13T02:45:43.323Z,5.10
2019-05-13T02:48:12.759Z,4.60
2019-05-13T02:50:44.099Z,4.90
2019-05-13T02:53:13.613Z,4.70
2019-05-13T02:55:43.641Z,4.87
2019-05-13T02:58:12.820Z,4.93
2019-05-13T03:00:44.167Z,5.10
2019-05-13T03:03:12.934Z,5.03
2019-05-13T03:05:42.862Z,5.27
2019-05-13T03:08:12.774Z,5.43
2019-05-13T03:10:43.400Z,5.67
2019-05-13T03:13:12.839Z,5.73
2019-05-13T03:15:43.322Z,5.80
2019-05-13T03:18:13.363Z,5.87
2019-05-13T03:20:43.082Z,5.83
2019-05-13T03:23:13.416Z,5.77
2019-05-13T03:25:43.078Z,5.73
2019-05-13T03:28:13.441Z,5.57
2019-05-13T03:30:45.832Z,5.33
2019-05-13T03:33:18.558Z,5.60
2019-05-13T03:35:45.310Z,5.57
2019-05-13T03:38:13.823Z,5.63
2019-05-13T03:40:42.804Z,5.53
2019-05-13T03:43:13.306Z,5.10
2019-05-13T03:45:43.404Z,5.40
2019-05-13T03:48:13.152Z,5.13
2019-05-13T03:50:43.429Z,5.33
2019-05-13T03:53:13.224Z,5.60
2019-05-13T03:55:43.384Z,5.27
2019-05-13T03:58:13.260Z,6.07
2019-05-13T04:00:42.774Z,5.63
2019-05-13T04:03:13.605Z,5.47
2019-05-13T04:05:43.737Z,5.50
2019-05-13T04:08:13.367Z,5.30
2019-05-13T04:10:42.445Z,5.60
2019-05-13T04:13:12.397Z,4.73
2019-05-13T04:15:42.848Z,4.87
2019-05-13T04:18:12.624Z,5.97
2019-05-13T04:20:42.542Z,5.50
2019-05-13T04:23:12.888Z,5.23
2019-05-13T04:25:44.726Z,5.00
2019-05-13T04:28:13.393Z,5.63
2019-05-13T04:30:43.628Z,5.50
2019-05-13T04:33:14.180Z,4.93
2019-05-13T04:35:43.192Z,5.20
2019-05-13T04:38:13.136Z,5.27
2019-05-13T04:40:42.627Z,5.07
2019-05-13T04:43:13.040Z,5.03
2019-05-13T04:45:43.052Z,5.03
2019-05-13T04:48:12.888Z,5.43
2019-05-13T04:50:43.208Z,5.33
2019-05-13T04:53:13.687Z,5.00
2019-05-13T04:55:43.401Z,5.57
2019-05-13T04:58:13.142Z,5.23
2019-05-13T05:01:07.961Z,5.50
2019-05-13T05:03:53.459Z,5.90
2019-05-13T05:06:45.953Z,5.87
2019-05-13T05:09:45.241Z,6.47
2019-05-13T05:12:34.641Z,5.87
2019-05-13T05:15:18.566Z,6.03
2019-05-13T05:18:06.949Z,6.03
2019-05-13T05:20:38.740Z,5.40
2019-05-13T05:23:22.597Z,5.67
2019-05-13T05:26:15.154Z,5.70
2019-05-13T05:29:12.737Z,5.83
2019-05-13T05:31:56.329Z,5.47
2019-05-13T05:34:36.679Z,5.47
2019-05-13T05:37:11.861Z,5.47
2019-05-13T05:39:41.986Z,5.87
2019-05-13T05:42:13.760Z,5.90
2019-05-13T05:44:44.059Z,5.53
2019-05-13T05:47:16.242Z,5.40
2019-05-13T05:49:47.660Z,5.73
2019-05-13T05:52:21.280Z,5.50
2019-05-13T05:54:52.753Z,5.90
2019-05-13T05:57:23.248Z,5.53
2019-05-13T05:59:53.840Z,5.83
2019-05-13T06:02:25.653Z,5.53
2019-05-13T06:04:56.135Z,5.90
2019-05-13T06:07:25.261Z,5.40
2019-05-13T06:09:54.039Z,6.40
2019-05-13T06:12:23.365Z,5.60
2019-05-13T06:14:52.590Z,5.80
2019-05-13T06:17:22.684Z,5.90
2019-05-13T06:19:51.504Z,5.70
2019-05-13T06:22:21.908Z,5.90
2019-05-13T06:24:52.202Z,5.90
2019-05-13T06:27:21.759Z,5.60
2019-05-13T06:29:52.845Z,5.80
2019-05-13T06:32:25.334Z,6.00
2019-05-13T06:34:52.440Z,5.80
2019-05-13T06:37:22.839Z,5.93
2019-05-13T06:39:51.659Z,5.87
2019-05-13T06:42:22.252Z,5.80
2019-05-13T06:44:51.511Z,6.20
2019-05-13T06:47:21.929Z,5.90
2019-05-13T06:49:51.608Z,6.00
2019-05-13T06:52:21.251Z,6.23
2019-05-13T06:54:52.000Z,6.10
2019-05-13T06:57:22.040Z,5.90
2019-05-13T06:59:52.411Z,5.93
2019-05-13T07:02:21.748Z,6.30
2019-05-13T07:04:51.643Z,6.03
2019-05-13T07:07:21.912Z,5.53
2019-05-13T07:09:51.771Z,5.60
2019-05-13T07:12:21.957Z,5.63
2019-05-13T07:14:51.777Z,6.07
2019-05-13T07:17:22.252Z,5.90
2019-05-13T07:19:51.794Z,5.83
2019-05-13T07:22:22.950Z,6.03
2019-05-13T07:24:51.918Z,5.67
2019-05-13T07:27:22.949Z,5.67
2019-05-13T07:29:53.653Z,5.50
2019-05-13T07:32:22.308Z,6.47
2019-05-13T07:34:53.166Z,6.07
2019-05-13T07:37:22.075Z,5.60
2019-05-13T07:39:52.993Z,6.00
2019-05-13T07:42:22.327Z,6.23
2019-05-13T07:44:52.736Z,5.73
2019-05-13T07:47:22.355Z,5.80
2019-05-13T07:49:51.810Z,6.23
2019-05-13T07:52:22.811Z,6.53
2019-05-13T07:54:52.240Z,6.20
2019-05-13T07:57:21.544Z,6.97
2019-05-13T07:59:52.391Z,5.93
2019-05-13T08:02:21.737Z,5.97
2019-05-13T08:04:53.044Z,5.93
2019-05-13T08:07:22.641Z,6.40
2019-05-13T08:09:55.509Z,5.90
2019-05-13T08:12:21.991Z,6.17
2019-05-13T08:14:52.190Z,6.33
2019-05-13T08:17:27.192Z,6.20
2019-05-13T08:19:59.043Z,6.00
2019-05-13T08:22:27.821Z,6.17
2019-05-13T08:25:03.016Z,6.20
2019-05-13T08:27:36.458Z,6.17
2019-05-13T08:30:11.915Z,6.10
2019-05-13T08:32:43.011Z,6.23
2019-05-13T08:35:16.012Z,6.20
2019-05-13T08:37:51.859Z,5.97
2019-05-13T08:40:24.108Z,6.20
2019-05-13T08:42:55.565Z,6.70
2019-05-13T08:45:27.095Z,6.00
2019-05-13T08:48:03.927Z,5.80
2019-05-13T08:50:34.928Z,6.37
2019-05-13T08:53:08.633Z,6.27
2019-05-13T08:55:43.207Z,6.20
2019-05-13T08:58:14.563Z,5.90
2019-05-13T09:00:52.985Z,6.03
2019-05-13T09:03:24.285Z,5.73
2019-05-13T09:06:02.532Z,5.90
2019-05-13T09:08:31.981Z,6.53
2019-05-13T09:11:02.986Z,5.73
2019-05-13T09:13:36.008Z,6.10
2019-05-13T09:16:05.451Z,6.50
2019-05-13T09:18:35.702Z,6.77
2019-05-13T09:21:08.820Z,6.60
2019-05-13T09:23:42.109Z,6.70
2019-05-13T09:26:14.665Z,6.67
2019-05-13T09:28:47.957Z,6.90
2019-05-13T09:31:27.160Z,7.10
2019-05-13T09:34:04.508Z,6.70
2019-05-13T09:36:34.427Z,6.60
2019-05-13T09:39:07.902Z,6.40
2019-05-13T09:41:44.722Z,6.30
2019-05-13T09:44:16.825Z,6.57
2019-05-13T09:46:51.703Z,6.23
2019-05-13T09:49:23.945Z,5.80
2019-05-13T09:51:55.573Z,6.00
2019-05-13T09:54:26.538Z,6.67
2019-05-13T09:57:01.862Z,6.50
2019-05-13T09:59:33.849Z,5.67
2019-05-13T10:02:15.256Z,6.17
2019-05-13T10:04:52.275Z,5.83
2019-05-13T10:07:24.040Z,6.00
2019-05-13T10:09:56.941Z,6.13
2019-05-13T10:12:32.095Z,5.73
2019-05-13T10:15:07.152Z,6.63
2019-05-13T10:17:42.695Z,6.10
2019-05-13T10:20:16.001Z,5.73
2019-05-13T10:22:48.760Z,5.60
2019-05-13T10:25:18.987Z,5.80
2019-05-13T10:27:47.700Z,6.13
2019-05-13T10:30:21.803Z,5.97
2019-05-13T10:32:52.705Z,5.77
2019-05-13T10:35:21.086Z,6.00
2019-05-13T10:37:52.305Z,5.70
2019-05-13T10:40:22.414Z,5.33
2019-05-13T10:42:52.389Z,5.53
2019-05-13T10:45:22.327Z,5.50
2019-05-13T10:47:51.896Z,5.63
2019-05-13T10:50:21.603Z,6.00
2019-05-13T10:52:52.265Z,5.47
2019-05-13T10:55:21.551Z,6.77
2019-05-13T10:57:51.403Z,5.60
2019-05-13T11:00:23.197Z,4.90
2019-05-13T11:02:51.899Z,5.40
2019-05-13T11:05:22.678Z,5.87
2019-05-13T11:07:51.740Z,5.10
2019-05-13T11:10:23.583Z,5.33
2019-05-13T11:12:52.258Z,5.40
2019-05-13T11:15:20.987Z,5.40
2019-05-13T11:17:51.888Z,5.37
2019-05-13T11:20:22.071Z,5.77
2019-05-13T11:22:52.157Z,5.67
2019-05-13T11:25:21.870Z,5.30
2019-05-13T11:27:52.456Z,5.90
2019-05-13T11:30:21.957Z,5.00
2019-05-13T11:32:51.647Z,5.07
2019-05-13T11:35:22.936Z,5.20
2019-05-13T11:37:52.218Z,4.90
2019-05-13T11:40:22.501Z,4.67
2019-05-13T11:42:52.641Z,4.80
2019-05-13T11:45:22.454Z,5.20
2019-05-13T11:47:52.237Z,5.00
2019-05-13T11:50:22.335Z,4.83
2019-05-13T11:52:52.438Z,4.83
2019-05-13T11:55:22.991Z,5.03
2019-05-13T11:57:53.122Z,5.13
2019-05-13T12:00:45.987Z,5.20
2019-05-13T12:03:15.056Z,5.33
2019-05-13T12:05:43.979Z,4.90
2019-05-13T12:08:12.819Z,5.30
2019-05-13T12:10:43.912Z,5.20
2019-05-13T12:13:12.654Z,4.87
2019-05-13T12:15:46.793Z,5.20
2019-05-13T12:18:12.795Z,4.90
2019-05-13T12:20:42.762Z,4.97
2019-05-13T12:23:13.007Z,5.23
2019-05-13T12:25:43.737Z,4.90
2019-05-13T12:28:12.353Z,4.90
2019-05-13T12:30:41.766Z,5.53
2019-05-13T12:33:13.474Z,5.00
2019-05-13T12:35:40.908Z,4.50
2019-05-13T12:38:12.979Z,4.70
2019-05-13T12:40:42.924Z,4.80
2019-05-13T12:43:13.282Z,5.10
2019-05-13T12:45:43.567Z,4.87
2019-05-13T12:48:17.386Z,5.00
2019-05-13T12:50:46.236Z,5.53
2019-05-13T12:53:16.362Z,4.77
2019-05-13T12:55:52.717Z,5.00
2019-05-13T12:58:17.217Z,5.20
2019-05-13T13:00:47.259Z,4.83
2019-05-13T13:03:16.015Z,5.20
2019-05-13T13:05:44.697Z,4.80
2019-05-13T13:08:24.428Z,4.50
2019-05-13T13:10:44.085Z,4.42
2019-05-13T13:13:12.780Z,4.53
2019-05-13T13:15:46.825Z,4.37
2019-05-13T13:18:14.273Z,3.87
2019-05-13T13:20:42.529Z,3.83
2019-05-13T13:23:12.878Z,3.95
2019-05-13T13:25:43.482Z,4.10
2019-05-13T13:28:15.323Z,4.10
2019-05-13T13:30:44.142Z,4.97
2019-05-13T13:35:45.201Z,5.07
2019-05-13T13:38:13.455Z,5.30
2019-05-13T13:40:45.703Z,5.50
2019-05-13T13:43:13.447Z,5.60
2019-05-13T13:46:06.764Z,6.17
2019-05-13T13:48:13.576Z,5.67
2019-05-13T13:50:44.167Z,6.13
2019-05-13T13:53:16.037Z,6.20
2019-05-13T13:55:45.089Z,5.50
2019-05-13T13:58:14.499Z,6.33
2019-05-13T14:00:56.469Z,5.73
2019-05-13T14:03:15.203Z,5.97
2019-05-13T14:05:44.692Z,6.27
2019-05-13T14:07:09.024Z,5.00
2019-05-13T14:08:13.495Z,5.67
2019-05-13T14:10:42.731Z,5.30
2019-05-13T14:13:12.532Z,5.67
2019-05-13T14:15:41.827Z,5.57
2019-05-13T14:18:11.450Z,5.37
2019-05-13T14:20:42.795Z,5.13
2019-05-13T14:23:12.649Z,5.27
2019-05-13T14:25:42.035Z,5.90
2019-05-13T14:28:10.944Z,5.37
2019-05-13T14:30:42.022Z,5.30
2019-05-13T14:33:10.074Z,5.37
2019-05-13T14:35:38.724Z,5.10
2019-05-13T14:38:07.431Z,4.97
2019-05-13T14:40:36.042Z,5.00
2019-05-13T14:43:04.715Z,4.97
2019-05-13T14:45:33.398Z,5.10
2019-05-13T14:48:02.091Z,5.20
2019-05-13T14:50:31.879Z,5.00
2019-05-13T14:53:01.597Z,4.93
2019-05-13T14:55:32.039Z,5.30
2019-05-13T14:58:01.632Z,5.40
2019-05-13T15:00:32.699Z,5.63
2019-05-13T15:03:03.075Z,5.23
2019-05-13T15:05:31.474Z,5.13
2019-05-13T15:08:00.266Z,5.10
2019-05-13T15:10:31.478Z,5.50
2019-05-13T15:13:03.004Z,5.13
2019-05-13T15:15:31.674Z,5.10
2019-05-13T15:18:01.458Z,5.07
2019-05-13T15:20:32.910Z,5.30
2019-05-13T15:23:00.716Z,5.37
2019-05-13T15:25:31.401Z,4.73
2019-05-13T15:28:02.945Z,5.23
2019-05-13T15:30:31.899Z,4.90
2019-05-13T15:33:01.747Z,4.90
2019-05-13T15:35:32.133Z,4.70
2019-05-13T15:38:01.281Z,4.80
2019-05-13T15:40:31.249Z,5.10
2019-05-13T15:43:02.319Z,4.70
2019-05-13T15:45:31.921Z,5.33
2019-05-13T15:48:02.263Z,5.03
2019-05-13T15:50:31.866Z,4.97
2019-05-13T15:53:02.843Z,5.23
2019-05-13T15:55:31.139Z,4.93
2019-05-13T15:58:01.822Z,4.93
2019-05-13T16:00:36.652Z,4.90
2019-05-13T16:03:06.911Z,4.80
2019-05-13T16:05:35.617Z,4.90
2019-05-13T16:08:04.294Z,4.73
2019-05-13T16:10:32.942Z,6.90
2019-05-13T16:13:02.204Z,5.20
2019-05-13T16:15:32.111Z,7.07
2019-05-13T16:18:02.506Z,5.10
2019-05-13T16:20:32.183Z,5.03
2019-05-13T16:23:02.418Z,4.63
2019-05-13T16:25:31.899Z,4.20
2019-05-13T16:28:01.354Z,4.20
2019-05-13T16:30:32.151Z,4.10
2019-05-13T16:33:02.797Z,4.30
2019-05-13T16:35:32.513Z,4.30
2019-05-13T16:38:01.807Z,3.80
2019-05-13T16:40:36.169Z,4.30
2019-05-13T16:43:01.430Z,4.20
2019-05-13T16:45:31.563Z,3.93
2019-05-13T16:48:01.508Z,4.17
2019-05-13T16:50:31.413Z,3.87
2019-05-13T16:53:01.846Z,3.90
2019-05-13T16:55:32.640Z,3.90
2019-05-13T16:58:01.953Z,3.70
2019-05-13T17:00:31.756Z,3.97
2019-05-13T17:03:02.333Z,3.73
2019-05-13T17:05:32.621Z,3.67
2019-05-13T17:08:02.139Z,3.87
2019-05-13T17:10:31.533Z,4.10
2019-05-13T17:13:02.867Z,3.90
2019-05-13T17:15:31.304Z,3.40
2019-05-13T17:18:11.079Z,3.80
2019-05-13T17:20:32.181Z,3.70
2019-05-13T17:23:01.817Z,3.73
2019-05-13T17:25:30.627Z,4.83
2019-05-13T17:27:59.282Z,3.63
2019-05-13T17:30:27.968Z,4.03
2019-05-13T17:32:56.598Z,3.77
2019-05-13T17:35:25.267Z,4.20
2019-05-13T17:37:54.727Z,3.80
2019-05-13T17:40:23.332Z,4.97
2019-05-13T17:42:51.922Z,4.90
2019-05-13T17:45:22.005Z,4.33
2019-05-13T17:47:52.067Z,4.47
2019-05-13T17:50:22.268Z,4.20
2019-05-13T17:52:51.452Z,4.30
2019-05-13T17:55:22.312Z,4.20
2019-05-13T17:57:50.680Z,4.53
2019-05-13T18:00:21.428Z,4.50
2019-05-13T18:02:51.395Z,4.60
2019-05-13T18:05:22.352Z,4.50
2019-05-13T18:07:51.301Z,4.50
2019-05-13T18:10:22.393Z,5.27
2019-05-13T18:12:51.120Z,4.60
2019-05-13T18:15:21.994Z,4.20
2019-05-13T18:17:52.155Z,4.37
2019-05-13T18:20:21.774Z,4.20
2019-05-13T18:22:52.388Z,4.20
2019-05-13T18:25:22.329Z,3.73
2019-05-13T18:27:52.124Z,4.00
2019-05-13T18:30:21.239Z,4.13
2019-05-13T18:32:51.821Z,4.30
2019-05-13T18:35:21.963Z,4.73
2019-05-13T18:37:50.884Z,4.90
2019-05-13T18:40:21.937Z,4.50
2019-05-13T18:42:51.423Z,5.07
2019-05-13T18:45:22.013Z,4.23
2019-05-13T18:47:51.373Z,3.83
2019-05-13T18:50:21.936Z,4.07
2019-05-13T18:52:52.441Z,3.37
2019-05-13T18:55:20.989Z,3.40
2019-05-13T18:57:51.692Z,3.70
2019-05-13T19:00:21.710Z,3.50
2019-05-13T19:02:50.489Z,3.80
2019-05-13T19:05:21.074Z,3.93
2019-05-13T19:07:51.286Z,3.70
2019-05-13T19:10:21.879Z,4.30
2019-05-13T19:12:50.226Z,5.10
2019-05-13T19:15:21.146Z,4.43
2019-05-13T19:17:51.862Z,3.90
2019-05-13T19:20:21.825Z,4.30
2019-05-13T19:22:51.833Z,3.80
2019-05-13T19:25:20.657Z,3.60
2019-05-13T19:27:51.554Z,3.70
2019-05-13T19:30:21.342Z,3.50
2019-05-13T19:32:52.075Z,3.50
2019-05-13T19:35:21.836Z,3.40
2019-05-13T19:37:51.570Z,3.20
2019-05-13T19:40:22.053Z,3.40
2019-05-13T19:42:51.092Z,3.00
2019-05-13T19:45:21.794Z,3.10
2019-05-13T19:47:51.831Z,3.10
2019-05-13T19:50:22.413Z,3.10
2019-05-13T19:52:51.866Z,3.00
2019-05-13T19:55:20.735Z,2.70
2019-05-13T19:57:51.717Z,3.17
2019-05-13T20:00:21.171Z,2.87
2019-05-13T20:02:50.003Z,2.87
2019-05-13T20:05:20.439Z,2.80
2019-05-13T20:07:49.139Z,3.10
2019-05-13T20:10:17.837Z,3.10
2019-05-13T20:12:46.571Z,3.13
2019-05-13T20:15:15.623Z,3.63
2019-05-13T20:17:44.272Z,2.90
2019-05-13T20:20:13.054Z,3.00
2019-05-13T20:22:42.289Z,2.70
2019-05-13T20:25:13.043Z,2.70
2019-05-13T20:27:42.122Z,2.67
2019-05-13T20:30:11.469Z,2.90
2019-05-13T20:32:40.272Z,3.10
2019-05-13T20:35:11.340Z,2.77
2019-05-13T20:37:39.386Z,2.60
2019-05-13T20:40:08.124Z,2.90
2019-05-13T20:42:36.886Z,2.90
2019-05-13T20:45:06.252Z,2.90
2019-05-13T20:47:34.988Z,2.70
2019-05-13T20:50:05.564Z,2.90
2019-05-13T20:52:34.292Z,3.03
2019-05-13T20:55:03.044Z,2.90
2019-05-13T20:57:32.352Z,3.17
2019-05-13T21:00:02.366Z,2.80
2019-05-13T21:02:31.989Z,3.00
2019-05-13T21:05:01.643Z,3.07
2019-05-13T21:07:32.130Z,3.07
2019-05-13T21:10:01.406Z,3.07
2019-05-13T21:12:31.368Z,2.80
2019-05-13T21:15:01.498Z,2.97
2019-05-13T21:17:30.434Z,3.07
2019-05-13T21:20:08.534Z,2.97
2019-05-13T21:22:31.634Z,2.90
2019-05-13T21:25:02.008Z,2.90
2019-05-13T21:27:31.532Z,3.00
2019-05-13T21:30:01.192Z,3.00
2019-05-13T21:32:30.081Z,3.10
2019-05-13T21:34:58.677Z,3.03
2019-05-13T21:37:27.407Z,3.80
2019-05-13T21:39:56.069Z,4.03
2019-05-13T21:42:24.776Z,4.40
2019-05-13T21:44:53.378Z,4.13
2019-05-13T21:47:22.161Z,4.27
2019-05-13T21:49:51.539Z,4.20
2019-05-13T21:52:23.629Z,4.37
2019-05-13T21:54:51.601Z,5.13
2019-05-13T21:57:20.475Z,4.60
2019-05-13T21:59:51.433Z,4.90
2019-05-13T22:02:21.229Z,4.40
2019-05-13T22:04:51.689Z,5.10
2019-05-13T22:07:22.200Z,4.60
2019-05-13T22:09:51.321Z,4.63
2019-05-13T22:12:21.728Z,4.50
2019-05-13T22:14:51.744Z,4.27
2019-05-13T22:17:20.614Z,4.23
2019-05-13T22:19:51.130Z,4.37
2019-05-13T22:22:21.910Z,4.40
2019-05-13T22:24:51.221Z,4.90
2019-05-13T22:27:21.890Z,4.17
2019-05-13T22:29:51.660Z,4.07
2019-05-13T22:32:22.034Z,4.40
2019-05-13T22:34:51.186Z,4.63
2019-05-13T22:37:20.068Z,4.70
2019-05-13T22:39:48.667Z,4.67
2019-05-13T22:42:17.306Z,4.47
2019-05-13T22:44:45.990Z,4.20
2019-05-13T22:47:14.690Z,4.67
2019-05-13T22:49:43.356Z,4.50
2019-05-13T22:52:12.121Z,5.03
2019-05-13T22:54:41.326Z,5.00
2019-05-13T22:57:12.005Z,5.00
2019-05-13T22:59:41.583Z,4.77
2019-05-13T23:02:10.596Z,5.00
2019-05-13T23:04:41.691Z,5.10
2019-05-13T23:07:11.606Z,5.30
2019-05-13T23:09:41.594Z,5.60
2019-05-13T23:12:12.332Z,4.97
2019-05-13T23:14:41.439Z,5.37
2019-05-13T23:17:12.300Z,5.30
2019-05-13T23:19:41.509Z,5.57
2019-05-13T23:22:12.056Z,5.03
2019-05-13T23:24:41.732Z,5.53
2019-05-13T23:27:11.118Z,4.97
2019-05-13T23:29:41.246Z,5.27
2019-05-13T23:32:12.047Z,5.43
2019-05-13T23:34:42.294Z,5.50
2019-05-13T23:37:11.332Z,5.60
2019-05-13T23:39:41.643Z,5.07
2019-05-13T23:42:12.129Z,5.20
2019-05-13T23:44:41.537Z,4.80
2019-05-13T23:47:11.488Z,4.73
2019-05-13T23:49:42.224Z,5.17
2019-05-13T23:52:11.634Z,5.03
2019-05-13T23:54:42.435Z,4.73
2019-05-13T23:57:11.910Z,4.90
2019-05-13T23:59:42.055Z,4.60
